Time;durP1;ratioP1;P1;durP2;ratioP2;P2;SDS_P1;SDS_P2;PMS_P1;PMS_P2;Temp;Humidity;BMP_temperature;BMP_pressure;BME280_temperature;BME280_humidity;BME280_pressure;Samples;Min_cycle;Max_cycle;Signal;HPM_P1;HPM_P2
2022/03/14 00:00:52;;;;;;;12.52;5.47;;;3.40;89.20;;;;;;4936149;29;20383;-74
2022/03/14 00:03:20;;;;;;;18.73;5.25;;;3.30;89.50;;;;;;4935110;29;20047;-74
2022/03/14 00:05:48;;;;;;;18.55;5.47;;;3.30;89.50;;;;;;4935284;29;20506;-74
2022/03/14 00:08:16;;;;;;;14.60;5.25;;;3.20;89.50;;;;;;4935094;29;20043;-74
2022/03/14 00:10:45;;;;;;;13.02;5.20;;;3.10;89.60;;;;;;4934908;29;20517;-74
2022/03/14 00:13:15;;;;;;;19.45;4.57;;;3.10;89.60;;;;;;4935513;29;20053;-75
2022/03/14 00:15:43;;;;;;;20.42;4.03;;;3.00;89.70;;;;;;4932558;29;20051;-75
2022/03/14 00:18:12;;;;;;;21.80;3.70;;;3.00;90.00;;;;;;4936249;29;20051;-74
2022/03/14 00:20:42;;;;;;;17.27;3.20;;;3.10;90.20;;;;;;4935410;29;20056;-74
2022/03/14 00:23:10;;;;;;;25.27;3.40;;;3.20;90.40;;;;;;4935851;29;20039;-74
2022/03/14 00:25:38;;;;;;;18.42;3.90;;;3.30;90.30;;;;;;4935190;29;20064;-74
2022/03/14 00:28:05;;;;;;;22.33;3.05;;;3.40;90.20;;;;;;4935256;29;20054;-74
2022/03/14 00:30:33;;;;;;;15.85;2.70;;;3.50;90.20;;;;;;4917982;29;20058;-74
2022/03/14 00:33:01;;;;;;;23.70;3.28;;;3.60;90.10;;;;;;4935579;29;20040;-74
2022/03/14 00:35:28;;;;;;;25.52;3.30;;;3.60;90.10;;;;;;4918884;29;20618;-75
2022/03/14 00:37:56;;;;;;;25.85;2.63;;;3.70;90.10;;;;;;4935364;29;20055;-74
2022/03/14 00:40:23;;;;;;;16.92;2.78;;;3.80;90.20;;;;;;4903104;29;20062;-74
2022/03/14 00:42:54;;;;;;;11.57;2.42;;;3.80;90.30;;;;;;4935212;29;20062;-74
2022/03/14 00:45:24;;;;;;;17.48;2.42;;;3.90;90.30;;;;;;4935509;29;20058;-74
2022/03/14 00:47:52;;;;;;;15.07;2.83;;;4.00;90.40;;;;;;4918355;29;20055;-74
2022/03/14 00:50:19;;;;;;;15.20;2.58;;;4.10;90.30;;;;;;4934640;29;20052;-74
2022/03/14 00:52:47;;;;;;;21.13;2.80;;;4.20;90.30;;;;;;4934375;29;20055;-74
2022/03/14 00:55:14;;;;;;;16.25;2.20;;;4.30;90.40;;;;;;4917974;29;20369;-74
2022/03/14 00:57:42;;;;;;;20.02;2.83;;;4.30;90.40;;;;;;4935224;29;20055;-74
2022/03/14 01:00:10;;;;;;;25.13;2.63;;;4.30;90.20;;;;;;4918313;29;20047;-74
2022/03/14 01:02:38;;;;;;;21.10;2.47;;;4.30;90.10;;;;;;4934803;29;20054;-74
2022/03/14 01:05:06;;;;;;;18.42;2.50;;;4.30;90.00;;;;;;4917584;29;20075;-74
2022/03/14 01:07:35;;;;;;;24.80;3.33;;;4.40;90.20;;;;;;4917690;29;20055;-74
2022/03/14 01:10:04;;;;;;;15.80;2.50;;;4.40;90.10;;;;;;4935174;29;20095;-74
2022/03/14 01:12:32;;;;;;;21.20;2.30;;;4.40;90.20;;;;;;4933395;29;20051;-74
2022/03/14 01:15:00;;;;;;;12.80;2.42;;;4.40;90.10;;;;;;4933962;29;20055;-74
2022/03/14 01:17:28;;;;;;;18.60;2.65;;;4.30;89.90;;;;;;4934755;29;20054;-72
2022/03/14 01:19:55;;;;;;;25.92;2.92;;;4.30;89.80;;;;;;4935112;29;20048;-73
2022/03/14 01:22:23;;;;;;;19.20;2.50;;;4.30;89.80;;;;;;4934827;29;20058;-74
2022/03/14 01:24:51;;;;;;;20.17;2.97;;;4.20;89.80;;;;;;4934732;29;20055;-73
2022/03/14 01:27:19;;;;;;;20.48;2.65;;;4.20;89.90;;;;;;4934576;29;20051;-73
2022/03/14 01:29:46;;;;;;;14.45;2.10;;;4.10;90.10;;;;;;4934651;29;20051;-73
2022/03/14 01:32:14;;;;;;;24.55;3.20;;;4.10;90.20;;;;;;4917734;29;20059;-73
2022/03/14 01:34:42;;;;;;;12.95;2.35;;;4.20;90.20;;;;;;4932775;29;20493;-73
2022/03/14 01:37:11;;;;;;;16.38;2.72;;;4.10;90.10;;;;;;4934672;29;20367;-73
2022/03/14 01:39:38;;;;;;;17.13;2.53;;;4.10;90.00;;;;;;4927669;29;20048;-74
2022/03/14 01:42:07;;;;;;;20.20;2.75;;;4.00;90.00;;;;;;4933956;29;20045;-73
2022/03/14 01:44:34;;;;;;;13.52;2.97;;;4.00;89.90;;;;;;4934694;29;20060;-73
2022/03/14 01:47:02;;;;;;;24.77;2.88;;;3.90;89.80;;;;;;4934728;29;20051;-73
2022/03/14 01:49:30;;;;;;;16.77;3.95;;;3.80;89.80;;;;;;4934102;29;20511;-74
2022/03/14 01:51:58;;;;;;;13.93;3.92;;;3.80;89.80;;;;;;4934163;29;20040;-73
2022/03/14 01:54:26;;;;;;;23.77;4.22;;;3.70;89.80;;;;;;4932108;29;20067;-74
2022/03/14 01:56:54;;;;;;;14.20;3.45;;;3.50;89.70;;;;;;4933443;29;20047;-73
2022/03/14 01:59:26;;;;;;;13.93;3.63;;;3.30;89.60;;;;;;4901806;29;20074;-73
2022/03/14 02:01:58;;;;;;;19.02;3.58;;;3.30;89.70;;;;;;4934281;29;20052;-72
2022/03/14 02:04:26;;;;;;;21.63;3.45;;;3.10;89.70;;;;;;4920160;29;20055;-73
2022/03/14 02:06:56;;;;;;;22.10;3.92;;;3.00;89.80;;;;;;4934405;29;20059;-73
2022/03/14 02:09:24;;;;;;;27.85;3.70;;;2.90;90.00;;;;;;4934231;29;20118;-73
2022/03/14 02:11:57;;;;;;;22.98;2.60;;;2.90;90.40;;;;;;4934463;29;20044;-74
2022/03/14 02:14:25;;;;;;;29.58;3.38;;;3.00;91.00;;;;;;4917178;29;20059;-74
2022/03/14 02:16:53;;;;;;;25.42;3.78;;;3.20;91.30;;;;;;4917798;29;20056;-74
2022/03/14 02:19:21;;;;;;;28.52;3.33;;;3.30;91.40;;;;;;4933743;29;20062;-74
2022/03/14 02:21:48;;;;;;;20.48;4.45;;;3.50;91.20;;;;;;4917495;29;20047;-74
2022/03/14 02:24:16;;;;;;;18.40;5.22;;;3.50;90.80;;;;;;4933653;29;20051;-74
2022/03/14 02:26:44;;;;;;;17.45;5.28;;;3.50;90.40;;;;;;4921017;29;20051;-73
2022/03/14 02:29:12;;;;;;;18.40;5.53;;;3.30;90.20;;;;;;4941064;29;20372;-74
2022/03/14 02:31:39;;;;;;;12.90;4.93;;;3.20;90.20;;;;;;4934408;29;20040;-74
2022/03/14 02:34:07;;;;;;;21.95;5.70;;;3.20;90.20;;;;;;4917172;29;20058;-74
2022/03/14 02:36:39;;;;;;;19.45;5.40;;;3.10;90.30;;;;;;4930729;29;20044;-73
2022/03/14 02:39:07;;;;;;;14.88;5.93;;;3.00;90.30;;;;;;4933801;29;20043;-73
2022/03/14 02:41:36;;;;;;;30.48;7.05;;;2.90;90.30;;;;;;4934403;29;20047;-73
2022/03/14 02:44:08;;;;;;;23.25;6.00;;;2.90;90.30;;;;;;4917634;29;20043;-73
2022/03/14 02:46:40;;;;;;;23.85;6.13;;;2.80;90.60;;;;;;4934050;29;20047;-74
2022/03/14 02:49:09;;;;;;;21.50;5.40;;;2.80;90.70;;;;;;4931821;29;20064;-73
2022/03/14 02:51:39;;;;;;;21.05;4.32;;;2.80;90.70;;;;;;4934750;29;20177;-73
2022/03/14 02:54:08;;;;;;;27.63;4.28;;;2.80;90.70;;;;;;4937133;29;20110;-73
2022/03/14 02:56:37;;;;;;;22.40;6.03;;;2.80;90.90;;;;;;4920197;29;20042;-73
2022/03/14 02:59:06;;;;;;;27.30;6.88;;;2.80;90.80;;;;;;4937430;29;20047;-74
2022/03/14 03:01:34;;;;;;;27.02;6.45;;;2.80;90.80;;;;;;4936423;29;20063;-74
2022/03/14 03:04:04;;;;;;;20.83;6.22;;;2.70;90.60;;;;;;4937497;29;20625;-73
2022/03/14 03:06:33;;;;;;;22.42;6.30;;;2.70;90.40;;;;;;4937472;29;20051;-73
2022/03/14 03:09:03;;;;;;;18.25;6.13;;;2.60;90.40;;;;;;4936056;29;20062;-73
2022/03/14 03:11:34;;;;;;;27.02;7.35;;;2.50;90.50;;;;;;4937205;29;20494;-74
2022/03/14 03:14:02;;;;;;;22.65;7.18;;;2.40;90.60;;;;;;4919110;29;20051;-73
2022/03/14 03:16:31;;;;;;;33.17;7.32;;;2.40;90.70;;;;;;4919846;29;20064;-73
2022/03/14 03:18:59;;;;;;;29.38;8.20;;;2.30;90.70;;;;;;4935770;29;20055;-74
2022/03/14 03:21:28;;;;;;;33.75;8.95;;;2.30;90.70;;;;;;4936676;29;20065;-73
2022/03/14 03:23:55;;;;;;;26.55;8.50;;;2.30;90.80;;;;;;4936988;29;20059;-74
2022/03/14 03:26:23;;;;;;;24.95;8.55;;;2.30;91.10;;;;;;4936159;29;20490;-74
2022/03/14 03:28:50;;;;;;;37.63;7.85;;;2.30;91.20;;;;;;4919646;29;20054;-73
2022/03/14 03:31:21;;;;;;;34.80;8.32;;;2.40;91.40;;;;;;4936790;29;20048;-73
2022/03/14 03:33:50;;;;;;;25.73;8.15;;;2.50;91.40;;;;;;4936166;29;20051;-74
2022/03/14 03:36:18;;;;;;;23.98;7.03;;;2.50;91.30;;;;;;4936897;29;20047;-73
2022/03/14 03:38:46;;;;;;;26.85;4.60;;;2.50;91.20;;;;;;4936430;29;20063;-73
2022/03/14 03:41:15;;;;;;;25.23;4.00;;;2.60;91.20;;;;;;4936849;29;20047;-73
2022/03/14 03:43:42;;;;;;;20.17;3.30;;;2.80;91.30;;;;;;4929702;29;20126;-74
2022/03/14 03:46:10;;;;;;;20.55;2.80;;;3.00;91.40;;;;;;4935665;29;20399;-73
2022/03/14 03:48:38;;;;;;;22.38;2.53;;;3.20;91.30;;;;;;4936445;29;20074;-74
2022/03/14 03:51:05;;;;;;;19.33;2.20;;;3.30;91.20;;;;;;4935796;29;20052;-74
2022/03/14 03:53:33;;;;;;;20.42;2.55;;;3.40;91.20;;;;;;4936424;29;20055;-74
2022/03/14 03:56:01;;;;;;;17.20;3.40;;;3.50;91.00;;;;;;4936094;29;20473;-73
2022/03/14 03:58:29;;;;;;;19.52;2.85;;;3.50;90.80;;;;;;4936189;29;20046;-73
2022/03/14 04:00:56;;;;;;;17.08;3.60;;;3.50;90.50;;;;;;4918928;29;20164;-74
2022/03/14 04:03:24;;;;;;;21.77;4.18;;;3.30;90.40;;;;;;4918639;29;20044;-73
2022/03/14 04:05:52;;;;;;;15.98;4.35;;;3.30;90.40;;;;;;4935494;29;20060;-74
2022/03/14 04:08:21;;;;;;;23.90;4.68;;;3.20;90.50;;;;;;4935299;29;20417;-74
2022/03/14 04:10:54;;;;;;;17.60;4.25;;;3.00;90.40;;;;;;4919249;29;20051;-74
2022/03/14 04:13:24;;;;;;;26.10;4.63;;;2.90;90.40;;;;;;4935401;29;20055;-74
2022/03/14 04:15:53;;;;;;;18.98;4.57;;;2.80;90.60;;;;;;4935558;29;20062;-74
2022/03/14 04:18:26;;;;;;;23.17;5.10;;;2.70;90.60;;;;;;4935395;29;20055;-74
2022/03/14 04:20:55;;;;;;;24.10;5.40;;;2.70;90.40;;;;;;4935766;29;20055;-73
2022/03/14 04:23:24;;;;;;;17.92;5.72;;;2.50;90.40;;;;;;4936091;29;20035;-73
2022/03/14 04:25:55;;;;;;;23.50;6.18;;;2.40;90.50;;;;;;4903740;29;20062;-74
2022/03/14 04:28:23;;;;;;;18.02;6.28;;;2.40;90.70;;;;;;4918395;29;20066;-73
2022/03/14 04:30:50;;;;;;;27.83;7.72;;;2.30;90.90;;;;;;4918740;29;20055;-74
2022/03/14 04:33:18;;;;;;;24.60;7.28;;;2.30;90.80;;;;;;4918280;29;20054;-73
2022/03/14 04:35:45;;;;;;;26.73;7.45;;;2.20;90.80;;;;;;4935305;29;20062;-74
2022/03/14 04:38:13;;;;;;;31.92;8.43;;;2.20;90.70;;;;;;4934629;29;20520;-73
2022/03/14 04:40:41;;;;;;;25.30;7.82;;;2.10;90.80;;;;;;4935260;29;20051;-73
2022/03/14 04:43:09;;;;;;;28.02;7.40;;;2.00;90.80;;;;;;4918251;29;20043;-74
2022/03/14 04:45:38;;;;;;;21.42;6.97;;;2.00;90.70;;;;;;4935548;29;20044;-73
2022/03/14 04:48:10;;;;;;;20.38;6.80;;;1.90;90.60;;;;;;4935704;29;20478;-73
2022/03/14 04:50:38;;;;;;;32.88;7.55;;;1.80;90.70;;;;;;4917778;29;20520;-73
2022/03/14 04:53:07;;;;;;;22.80;7.28;;;1.70;90.80;;;;;;4935366;29;20043;-74
2022/03/14 04:55:36;;;;;;;28.55;7.70;;;1.70;90.80;;;;;;4913104;29;20052;-74
2022/03/14 04:58:05;;;;;;;26.85;6.90;;;1.60;90.70;;;;;;4918144;29;20059;-73
2022/03/14 05:00:34;;;;;;;23.35;8.73;;;1.50;90.80;;;;;;4918205;29;20051;-73
2022/03/14 05:03:06;;;;;;;28.55;9.35;;;1.50;90.80;;;;;;4917648;29;20410;-73
2022/03/14 05:05:37;;;;;;;22.90;8.82;;;1.50;91.10;;;;;;4934568;29;20064;-73
2022/03/14 05:08:05;;;;;;;36.17;9.85;;;1.50;91.20;;;;;;4934575;29;20048;-74
2022/03/14 05:10:34;;;;;;;34.95;11.43;;;1.40;91.20;;;;;;4935344;29;20486;-74
2022/03/14 05:13:02;;;;;;;31.88;9.57;;;1.40;91.10;;;;;;4917523;29;20058;-74
2022/03/14 05:15:32;;;;;;;26.73;8.48;;;1.30;91.00;;;;;;4935030;29;20501;-73
2022/03/14 05:18:01;;;;;;;28.65;7.65;;;1.30;91.00;;;;;;4933806;29;20055;-73
2022/03/14 05:20:29;;;;;;;27.80;8.65;;;1.30;90.90;;;;;;4918253;29;20397;-73
2022/03/14 05:22:58;;;;;;;29.83;8.57;;;1.20;90.80;;;;;;4934819;29;20536;-73
2022/03/14 05:25:26;;;;;;;31.23;9.23;;;1.10;90.80;;;;;;4934495;29;20058;-73
2022/03/14 05:27:54;;;;;;;26.23;9.57;;;1.00;90.80;;;;;;4934101;29;20051;-73
2022/03/14 05:30:25;;;;;;;37.38;12.50;;;0.90;90.90;;;;;;4934084;29;20047;-73
2022/03/14 05:32:53;;;;;;;37.33;11.98;;;0.90;90.90;;;;;;4933942;29;20674;-74
2022/03/14 05:35:20;;;;;;;35.45;12.05;;;0.90;91.00;;;;;;4918088;29;20035;-73
2022/03/14 05:37:49;;;;;;;40.53;11.98;;;0.90;91.20;;;;;;4934579;29;20533;-74
2022/03/14 05:40:20;;;;;;;35.65;12.98;;;0.90;91.30;;;;;;4934417;29;20426;-74
2022/03/14 05:42:49;;;;;;;38.25;12.32;;;0.90;91.20;;;;;;4917812;29;20063;-74
2022/03/14 05:45:19;;;;;;;49.58;14.35;;;0.90;91.20;;;;;;4917302;29;20058;-74
2022/03/14 05:47:47;;;;;;;47.65;14.75;;;0.90;91.30;;;;;;4931673;29;20053;-73
2022/03/14 05:50:15;;;;;;;51.42;16.98;;;0.90;91.30;;;;;;4928342;29;20064;-73
2022/03/14 05:52:43;;;;;;;54.17;16.75;;;0.90;91.40;;;;;;4932765;29;20047;-73
2022/03/14 05:55:11;;;;;;;54.00;18.48;;;1.00;91.60;;;;;;4934569;29;20055;-73
2022/03/14 05:57:40;;;;;;;47.85;17.20;;;1.00;91.70;;;;;;4934876;29;20051;-74
2022/03/14 06:00:09;;;;;;;52.13;16.83;;;1.00;91.70;;;;;;4934341;29;20044;-73
2022/03/14 06:02:47;;;;;;;55.65;16.30;;;1.00;91.60;;;;;;4932429;29;20397;-73
2022/03/14 06:05:17;;;;;;;35.03;11.77;;;1.00;91.40;;;;;;4934690;29;20052;-73
2022/03/14 06:07:45;;;;;;;37.35;9.55;;;1.00;91.20;;;;;;4934487;29;20055;-73
2022/03/14 06:10:15;;;;;;;33.67;8.48;;;0.90;91.20;;;;;;4934409;29;20048;-74
2022/03/14 06:12:43;;;;;;;26.85;8.48;;;0.80;91.20;;;;;;4932967;29;20051;-73
2022/03/14 06:15:16;;;;;;;34.70;8.43;;;0.80;91.20;;;;;;4931110;29;20063;-74
2022/03/14 06:17:44;;;;;;;;;;;0.70;91.00;;;;;;4934524;29;20497;-74
2022/03/14 06:20:14;;;;;;;29.92;9.70;;;0.60;90.90;;;;;;4917365;29;19945;-73
2022/03/14 06:22:44;;;;;;;55.05;16.02;;;0.50;90.80;;;;;;4934569;29;20528;-73
2022/03/14 06:25:13;;;;;;;50.28;16.83;;;0.50;91.20;;;;;;4934447;29;20043;-73
2022/03/14 06:27:41;;;;;;;58.05;19.27;;;0.50;91.40;;;;;;4919640;29;20048;-73
2022/03/14 06:30:09;;;;;;;64.22;21.15;;;0.50;91.50;;;;;;4906914;29;20690;-73
2022/03/14 06:32:38;;;;;;;75.30;22.73;;;0.60;91.70;;;;;;4888770;29;20051;-73
2022/03/14 06:35:12;;;;;;;69.32;22.38;;;0.60;91.80;;;;;;4936964;29;20074;-73
2022/03/14 06:37:40;;;;;;;68.00;22.55;;;0.60;91.70;;;;;;4937612;29;20047;-73
2022/03/14 06:40:08;;;;;;;63.92;20.05;;;0.60;91.60;;;;;;4937086;29;20036;-73
2022/03/14 06:42:41;;;;;;;62.65;19.65;;;0.60;91.50;;;;;;4920630;29;20056;-73
2022/03/14 06:45:10;;;;;;;44.95;15.38;;;0.60;91.40;;;;;;4937043;29;20048;-74
2022/03/14 06:47:38;;;;;;;55.85;16.88;;;0.60;91.50;;;;;;4937777;29;20052;-73
2022/03/14 06:50:08;;;;;;;48.40;15.48;;;0.60;91.60;;;;;;4936792;29;20051;-73
2022/03/14 06:52:36;;;;;;;52.88;15.38;;;0.60;91.50;;;;;;4918556;29;20056;-73
2022/03/14 06:55:06;;;;;;;62.63;17.88;;;0.50;91.50;;;;;;4936834;29;20044;-73
2022/03/14 06:57:33;;;;;;;60.88;19.42;;;0.50;91.60;;;;;;4937448;29;20052;-73
2022/03/14 07:00:01;;;;;;;68.75;17.80;;;0.50;91.70;;;;;;4936947;29;20061;-73
2022/03/14 07:02:29;;;;;;;55.50;19.38;;;0.50;91.70;;;;;;4936676;29;20906;-72
2022/03/14 07:04:58;;;;;;;63.60;20.92;;;0.50;91.70;;;;;;4936512;29;20062;-74
2022/03/14 07:07:26;;;;;;;59.75;20.40;;;0.50;91.70;;;;;;4904881;29;20051;-72
2022/03/14 07:09:54;;;;;;;71.53;21.58;;;0.60;92.00;;;;;;4935985;29;20055;-72
2022/03/14 07:12:22;;;;;;;75.63;21.25;;;0.70;92.10;;;;;;4911324;29;20047;-73
2022/03/14 07:14:49;;;;;;;72.22;21.77;;;0.80;92.20;;;;;;4918918;29;20051;-73
2022/03/14 07:17:17;;;;;;;67.35;22.52;;;0.80;92.30;;;;;;4919834;29;20137;-72
2022/03/14 07:19:46;;;;;;;60.35;21.67;;;0.90;92.20;;;;;;4904396;29;20607;-72
2022/03/14 07:22:19;;;;;;;58.90;19.42;;;1.00;92.30;;;;;;4936798;29;20513;-72
2022/03/14 07:24:54;;;;;;;63.10;22.95;;;1.00;92.30;;;;;;4937084;29;20066;-72
2022/03/14 07:27:22;;;;;;;76.15;24.55;;;1.00;92.30;;;;;;4937163;29;20048;-72
2022/03/14 07:29:49;;;;;;;91.63;25.90;;;1.20;92.40;;;;;;4935089;29;20055;-73
2022/03/14 07:32:17;;;;;;;73.50;26.85;;;1.30;92.40;;;;;;4918132;29;20510;-72
2022/03/14 07:34:45;;;;;;;68.55;24.48;;;1.30;92.50;;;;;;4918599;29;20060;-72
2022/03/14 07:37:13;;;;;;;73.95;24.42;;;1.30;92.50;;;;;;4936563;29;20048;-72
2022/03/14 07:39:40;;;;;;;59.03;20.48;;;1.40;92.50;;;;;;4935081;29;20396;-72
2022/03/14 07:42:08;;;;;;;49.00;16.02;;;1.60;92.60;;;;;;4919237;29;20036;-72
2022/03/14 07:44:36;;;;;;;45.17;11.73;;;1.80;92.90;;;;;;4903521;29;20047;-72
2022/03/14 07:47:06;;;;;;;34.70;9.93;;;2.10;93.10;;;;;;4936150;29;20048;-73
2022/03/14 07:49:33;;;;;;;39.30;9.10;;;2.30;93.30;;;;;;4936671;29;20047;-72
2022/03/14 07:52:01;;;;;;;28.70;7.75;;;2.60;93.30;;;;;;4919425;29;20046;-73
2022/03/14 07:54:28;;;;;;;25.30;7.07;;;2.80;93.40;;;;;;4935715;29;20077;-74
2022/03/14 07:56:56;;;;;;;22.77;5.07;;;3.00;93.40;;;;;;4934499;29;20063;-72
2022/03/14 07:59:24;;;;;;;21.80;4.80;;;3.20;93.40;;;;;;4935247;29;20047;-72
2022/03/14 08:01:52;;;;;;;23.45;4.53;;;3.30;93.50;;;;;;4935333;29;20051;-71
2022/03/14 08:04:20;;;;;;;26.52;4.82;;;3.50;93.40;;;;;;4919098;29;20047;-72
2022/03/14 08:06:48;;;;;;;17.33;3.95;;;3.60;93.40;;;;;;4918916;29;20058;-73
2022/03/14 08:09:18;;;;;;;15.00;3.65;;;3.80;93.30;;;;;;4935607;29;20043;-72
2022/03/14 08:11:46;;;;;;;15.02;4.20;;;3.80;93.30;;;;;;4918857;29;20494;-72
2022/03/14 08:14:14;;;;;;;23.40;3.42;;;3.90;93.20;;;;;;4918766;29;20051;-72
2022/03/14 08:16:41;;;;;;;20.55;3.65;;;4.00;93.00;;;;;;4935794;29;20048;-72
2022/03/14 08:19:09;;;;;;;26.27;3.70;;;4.10;92.90;;;;;;4935102;29;20051;-73
2022/03/14 08:21:37;;;;;;;15.55;3.15;;;4.20;92.80;;;;;;4917273;29;20052;-72
2022/03/14 08:24:05;;;;;;;18.50;3.70;;;4.20;92.70;;;;;;4934646;29;20141;-72
2022/03/14 08:26:33;;;;;;;11.40;2.42;;;4.30;92.50;;;;;;4934422;29;20059;-72
2022/03/14 08:29:01;;;;;;;15.77;2.92;;;4.40;92.40;;;;;;4918230;29;20040;-72
2022/03/14 08:31:31;;;;;;;20.67;3.10;;;4.50;92.30;;;;;;4935666;29;20397;-73
2022/03/14 08:34:00;;;;;;;18.13;2.63;;;4.60;92.20;;;;;;4918783;29;20048;-72
2022/03/14 08:36:28;;;;;;;18.52;2.63;;;4.80;92.00;;;;;;4902356;29;20052;-72
2022/03/14 08:38:56;;;;;;;18.90;2.85;;;4.80;91.80;;;;;;4935777;29;20529;-73
2022/03/14 08:41:24;;;;;;;9.52;1.85;;;4.80;91.70;;;;;;4935512;29;20043;-73
2022/03/14 08:43:51;;;;;;;19.13;2.88;;;4.90;91.50;;;;;;4935303;29;20048;-73
2022/03/14 08:46:19;;;;;;;20.67;2.60;;;5.00;91.30;;;;;;4934842;29;20052;-73
2022/03/14 08:48:47;;;;;;;22.67;2.90;;;5.20;91.10;;;;;;4935669;29;20067;-73
2022/03/14 08:51:14;;;;;;;16.02;2.90;;;5.20;90.80;;;;;;4918330;29;20417;-73
2022/03/14 08:53:42;;;;;;;18.20;2.72;;;5.30;90.70;;;;;;4935670;29;20047;-73
2022/03/14 08:56:12;;;;;;;19.60;3.03;;;5.30;90.40;;;;;;4935447;29;20486;-73
2022/03/14 08:58:40;;;;;;;17.63;2.58;;;5.40;90.30;;;;;;4918489;29;20104;-73
2022/03/14 09:01:11;;;;;;;12.90;2.67;;;5.50;90.10;;;;;;4935632;29;20055;-73
2022/03/14 09:03:39;;;;;;;13.50;1.95;;;5.50;89.80;;;;;;4934691;29;20070;-73
2022/03/14 09:06:07;;;;;;;17.55;2.70;;;5.60;89.50;;;;;;4935476;29;20039;-73
2022/03/14 09:08:34;;;;;;;15.80;2.67;;;5.70;89.40;;;;;;4918384;29;20052;-73
2022/03/14 09:11:02;;;;;;;13.75;2.55;;;5.80;89.20;;;;;;4918519;29;20129;-73
2022/03/14 09:13:30;;;;;;;18.88;2.60;;;5.90;88.90;;;;;;4935357;29;20047;-73
2022/03/14 09:15:57;;;;;;;14.07;2.40;;;5.90;88.60;;;;;;4935315;29;20048;-73
2022/03/14 09:18:29;;;;;;;20.45;3.20;;;6.10;88.70;;;;;;4934417;29;20047;-72
2022/03/14 09:20:58;;;;;;;14.98;2.53;;;6.20;88.60;;;;;;4918226;29;20047;-72
2022/03/14 09:23:26;;;;;;;16.85;2.50;;;6.20;88.40;;;;;;4935294;29;20059;-72
2022/03/14 09:25:55;;;;;;;13.25;2.55;;;6.30;88.20;;;;;;4933903;29;20401;-72
2022/03/14 09:28:22;;;;;;;17.17;2.38;;;6.40;88.10;;;;;;4918097;29;20494;-72
2022/03/14 09:30:50;;;;;;;10.70;1.95;;;6.50;87.80;;;;;;4935307;29;20394;-72
2022/03/14 09:33:18;;;;;;;10.20;1.73;;;6.60;87.40;;;;;;4934231;29;20082;-73
2022/03/14 09:35:46;;;;;;;17.33;2.40;;;6.70;87.10;;;;;;4935127;29;20056;-72
2022/03/14 09:38:15;;;;;;;11.45;2.00;;;6.80;86.70;;;;;;4934379;29;20047;-72
2022/03/14 09:40:45;;;;;;;15.63;2.33;;;6.90;85.80;;;;;;4917124;29;20063;-72
2022/03/14 09:43:18;;;;;;;16.38;2.28;;;7.00;85.00;;;;;;4915444;29;20055;-72
2022/03/14 09:45:48;;;;;;;10.52;1.60;;;7.20;84.70;;;;;;4923305;29;20062;-72
2022/03/14 09:48:16;;;;;;;13.43;1.85;;;7.30;83.60;;;;;;4917008;29;20063;-71
2022/03/14 09:50:46;;;;;;;15.15;1.75;;;7.40;83.40;;;;;;4899563;29;20063;-72
2022/03/14 09:53:16;;;;;;;11.15;1.27;;;7.60;82.20;;;;;;4922083;29;20047;-72
2022/03/14 09:55:46;;;;;;;14.65;2.08;;;7.70;81.20;;;;;;4890612;29;20062;-73
2022/03/14 09:58:18;;;;;;;7.80;1.48;;;7.70;80.60;;;;;;4919954;29;20502;-73
2022/03/14 10:00:47;;;;;;;13.80;1.98;;;7.80;79.80;;;;;;4932265;29;20058;-72
2022/03/14 10:03:22;;;;;;;6.45;1.15;;;7.90;78.70;;;;;;4933056;29;20044;-72
2022/03/14 10:05:50;;;;;;;10.35;1.40;;;8.00;77.80;;;;;;4926483;29;20413;-70
2022/03/14 10:08:18;;;;;;;15.68;1.73;;;8.10;77.30;;;;;;4938167;29;20051;-73
2022/03/14 10:10:46;;;;;;;10.60;1.73;;;8.30;76.60;;;;;;4938550;29;20044;-73
2022/03/14 10:13:34;;;;;;;11.45;1.42;;;8.30;77.00;;;;;;4937752;29;20075;-72
2022/03/14 10:16:03;;;;;;;6.13;1.20;;;8.30;76.20;;;;;;4938658;29;20059;-72
2022/03/14 10:18:55;;;;;;;11.98;1.92;;;8.30;75.20;;;;;;4938368;29;20052;-72
2022/03/14 10:21:37;;;;;;;9.85;1.98;;;8.30;75.70;;;;;;4919478;29;20044;-72
2022/03/14 10:24:07;;;;;;;10.18;1.23;;;8.30;76.20;;;;;;4919336;29;20162;-72
2022/03/14 10:26:43;;;;;;;12.82;1.67;;;8.50;76.00;;;;;;4937514;29;20050;-72
2022/03/14 10:29:13;;;;;;;19.15;2.17;;;8.60;75.30;;;;;;4938330;29;20062;-72
2022/03/14 10:31:45;;;;;;;13.13;1.70;;;8.70;74.10;;;;;;4937791;29;20043;-72
2022/03/14 10:34:18;;;;;;;7.20;1.25;;;8.80;74.20;;;;;;4920823;29;20058;-72
2022/03/14 10:36:47;;;;;;;7.45;1.35;;;8.80;74.40;;;;;;4920032;29;20055;-72
2022/03/14 10:39:26;;;;;;;6.18;1.10;;;8.90;73.50;;;;;;4937000;29;20058;-72
2022/03/14 10:42:02;;;;;;;6.10;1.08;;;9.00;72.70;;;;;;4905252;29;20044;-72
2022/03/14 10:44:48;;;;;;;12.45;2.10;;;9.10;72.50;;;;;;4937005;29;20054;-72
2022/03/14 10:47:19;;;;;;;12.63;1.90;;;9.30;72.10;;;;;;4937401;29;20063;-72
2022/03/14 10:49:48;;;;;;;12.23;1.88;;;9.40;70.90;;;;;;4937550;29;20047;-72
2022/03/14 10:52:18;;;;;;;6.47;1.48;;;9.60;70.80;;;;;;4937735;29;20059;-72
2022/03/14 10:54:46;;;;;;;8.32;1.25;;;9.80;71.10;;;;;;4937785;29;20138;-72
2022/03/14 10:57:18;;;;;;;9.65;1.80;;;9.80;70.00;;;;;;4937112;29;20063;-72
2022/03/14 10:59:51;;;;;;;10.20;1.77;;;9.70;69.80;;;;;;4937036;29;20071;-72
2022/03/14 11:02:26;;;;;;;13.98;2.08;;;9.60;70.00;;;;;;4936562;29;20048;-72
2022/03/14 11:04:59;;;;;;;12.80;1.50;;;9.50;70.10;;;;;;4937361;29;20062;-72
2022/03/14 11:07:28;;;;;;;11.63;1.92;;;9.30;71.00;;;;;;4920044;29;20059;-73
2022/03/14 11:09:58;;;;;;;8.25;1.75;;;9.30;71.50;;;;;;4936207;29;20498;-72
2022/03/14 11:12:30;;;;;;;10.55;1.77;;;9.40;72.10;;;;;;4936116;29;20545;-72
2022/03/14 11:15:09;;;;;;;6.95;0.95;;;9.70;71.60;;;;;;4935099;29;20048;-73
2022/03/14 11:17:37;;;;;;;7.50;1.10;;;9.90;69.40;;;;;;4936683;29;20044;-79
2022/03/14 11:20:25;;;;;;;9.85;1.20;;;10.00;67.30;;;;;;4921192;29;20059;-71
2022/03/14 11:22:54;;;;;;;5.40;1.13;;;10.10;65.40;;;;;;4919966;29;20051;-71
2022/03/14 11:25:22;;;;;;;8.10;1.10;;;10.00;64.70;;;;;;4920415;29;20052;-72
2022/03/14 11:27:51;;;;;;;11.00;1.73;;;9.90;65.10;;;;;;4904659;29;20062;-71
2022/03/14 11:30:19;;;;;;;11.55;1.58;;;9.90;64.20;;;;;;4917292;29;20059;-71
2022/03/14 11:32:47;;;;;;;9.40;1.00;;;9.80;64.90;;;;;;4936447;29;20048;-71
2022/03/14 11:35:16;;;;;;;9.25;1.10;;;10.00;64.20;;;;;;4935648;29;20408;-71
2022/03/14 11:37:45;;;;;;;7.18;1.30;;;10.20;62.20;;;;;;4931766;29;20056;-71
2022/03/14 11:40:15;;;;;;;10.43;0.95;;;10.40;61.60;;;;;;4936178;29;20416;-71
2022/03/14 11:42:44;;;;;;;6.40;1.30;;;10.60;61.80;;;;;;4936748;29;20056;-72
2022/03/14 11:45:14;;;;;;;3.67;0.90;;;10.80;58.30;;;;;;4919226;29;20055;-72
2022/03/14 11:47:43;;;;;;;6.15;1.23;;;11.00;58.00;;;;;;4936804;29;20047;-71
2022/03/14 11:50:11;;;;;;;2.90;0.70;;;11.20;57.50;;;;;;4935605;29;20060;-72
2022/03/14 11:52:43;;;;;;;8.40;0.93;;;11.30;57.60;;;;;;4936287;29;20063;-71
2022/03/14 11:55:27;;;;;;;3.45;0.80;;;11.50;57.00;;;;;;4919564;29;20066;-71
2022/03/14 11:57:55;;;;;;;3.80;0.52;;;11.60;55.30;;;;;;4945388;29;20409;-71
2022/03/14 12:00:32;;;;;;;9.95;1.45;;;11.60;54.90;;;;;;4937716;29;20060;-71
2022/03/14 12:03:07;;;;;;;8.13;0.80;;;11.50;54.70;;;;;;4936521;29;20044;-71
2022/03/14 12:05:35;;;;;;;5.38;0.52;;;11.60;54.10;;;;;;4935293;29;20501;-71
2022/03/14 12:08:32;;;;;;;7.13;1.20;;;11.70;53.20;;;;;;4915048;29;20052;-71
2022/03/14 12:11:28;;;;;;;3.63;0.60;;;11.70;52.40;;;;;;4918583;29;20047;-70
2022/03/14 12:13:56;;;;;;;4.93;0.93;;;11.40;53.70;;;;;;4909817;29;20059;-71
2022/03/14 12:16:44;;;;;;;5.10;1.23;;;11.30;54.20;;;;;;4935735;29;20051;-72
2022/03/14 12:19:42;;;;;;;4.95;0.60;;;11.10;54.50;;;;;;4936838;29;20047;-71
2022/03/14 12:22:32;;;;;;;6.38;0.90;;;10.90;54.90;;;;;;4935530;29;20053;-72
2022/03/14 12:25:01;;;;;;;7.18;1.35;;;10.70;56.30;;;;;;4935183;29;20122;-72
2022/03/14 12:27:36;;;;;;;8.35;1.05;;;10.50;57.10;;;;;;4918062;29;20059;-71
2022/03/14 12:30:25;;;;;;;2.67;0.75;;;10.40;56.70;;;;;;4918403;29;20052;-71
2022/03/14 12:32:55;;;;;;;8.30;1.02;;;10.50;56.70;;;;;;4903005;29;20055;-71
2022/03/14 12:35:22;;;;;;;7.15;1.17;;;10.60;56.80;;;;;;4934538;29;20055;-72
2022/03/14 12:37:54;;;;;;;9.00;0.93;;;10.60;57.20;;;;;;4934975;29;20518;-72
2022/03/14 12:40:22;;;;;;;10.30;1.48;;;10.40;57.90;;;;;;4935275;29;20056;-72
2022/03/14 12:43:18;;;;;;;6.22;0.95;;;10.80;58.50;;;;;;4935275;29;20055;-72
2022/03/14 12:45:53;;;;;;;6.60;1.02;;;11.50;56.20;;;;;;4935228;29;20048;-72
2022/03/14 12:48:27;;;;;;;5.90;1.05;;;11.90;56.10;;;;;;4916152;29;20417;-72
2022/03/14 12:50:58;;;;;;;7.50;1.30;;;12.10;53.20;;;;;;4935205;29;20398;-71
2022/03/14 12:53:29;;;;;;;2.20;0.52;;;12.40;53.40;;;;;;4902623;29;20429;-72
2022/03/14 12:56:02;;;;;;;7.47;1.30;;;12.80;50.80;;;;;;4918316;29;20054;-72
2022/03/14 12:58:32;;;;;;;4.07;0.85;;;13.00;49.20;;;;;;4918345;29;20494;-70